Time;durP1;ratioP1;P1;durP2;ratioP2;P2;SDS_P1;SDS_P2;PMS_P1;PMS_P2;Temp;Humidity;BMP_temperature;BMP_pressure;BME280_temperature;BME280_humidity;BME280_pressure;Samples;Min_cycle;Max_cycle;Signal;HPM_P1;HPM_P2
2023/02/18 00:01:45;;;;;;;34.67;21.40;;;;;;;;;;4995731;28;20486;-44
2023/02/18 00:04:11;;;;;;;35.20;20.50;;;;;;;;;;4995724;28;20405;-44
2023/02/18 00:06:37;;;;;;;32.03;19.23;;;;;;;;;;4995957;28;20404;-44
2023/02/18 00:09:05;;;;;;;29.23;18.93;;;;;;;;;;4995725;28;20443;-44
2023/02/18 00:11:31;;;;;;;30.87;18.60;;;;;;;;;;4995261;28;20439;-44
2023/02/18 00:13:59;;;;;;;32.97;19.50;;;;;;;;;;4995560;28;20486;-44
2023/02/18 00:16:26;;;;;;;29.73;18.77;;;;;;;;;;4995824;28;20462;-44
2023/02/18 00:18:59;;;;;;;29.20;19.33;;;;;;;;;;4995492;28;20404;-44
2023/02/18 00:21:25;;;;;;;35.50;19.80;;;;;;;;;;4995550;28;20406;-44
2023/02/18 00:23:51;;;;;;;29.47;18.50;;;;;;;;;;4995709;28;20415;-44
2023/02/18 00:26:18;;;;;;;33.20;21.77;;;;;;;;;;4994324;28;20416;-44
2023/02/18 00:28:44;;;;;;;33.20;20.67;;;;;;;;;;4999507;28;20209;-44
2023/02/18 00:31:12;;;;;;;37.97;19.07;;;;;;;;;;4994914;28;20408;-45
2023/02/18 00:33:38;;;;;;;30.70;19.70;;;;;;;;;;4995266;28;20463;-44
2023/02/18 00:36:05;;;;;;;27.33;18.50;;;;;;;;;;4995209;28;20423;-44
2023/02/18 00:38:31;;;;;;;37.73;20.67;;;;;;;;;;4995274;28;20419;-44
2023/02/18 00:40:57;;;;;;;32.07;18.07;;;;;;;;;;4994570;28;20515;-44
2023/02/18 00:43:23;;;;;;;30.83;19.47;;;;;;;;;;4995314;28;21024;-44
2023/02/18 00:45:49;;;;;;;34.10;20.33;;;;;;;;;;4995427;28;20498;-44
2023/02/18 00:48:15;;;;;;;34.50;19.23;;;;;;;;;;4994933;28;20467;-44
2023/02/18 00:50:41;;;;;;;33.20;19.53;;;;;;;;;;4994509;28;20798;-44
2023/02/18 00:53:07;;;;;;;36.87;20.90;;;;;;;;;;4994831;28;20530;-44
2023/02/18 00:55:33;;;;;;;35.00;18.30;;;;;;;;;;4997066;28;20779;-44
2023/02/18 00:57:59;;;;;;;30.97;18.53;;;;;;;;;;4994897;28;20416;-44
2023/02/18 01:00:25;;;;;;;33.63;18.67;;;;;;;;;;4994061;28;20422;-44
2023/02/18 01:02:53;;;;;;;30.17;18.70;;;;;;;;;;4994540;28;20454;-44
2023/02/18 01:05:20;;;;;;;32.90;18.70;;;;;;;;;;4993659;28;20430;-44
2023/02/18 01:07:46;;;;;;;33.57;17.50;;;;;;;;;;4994923;28;20558;-44
2023/02/18 01:10:12;;;;;;;33.10;18.43;;;;;;;;;;4994070;28;20515;-44
2023/02/18 01:12:38;;;;;;;25.97;17.77;;;;;;;;;;4994726;28;20522;-44
2023/02/18 01:15:05;;;;;;;36.83;18.50;;;;;;;;;;4995393;28;20938;-44
2023/02/18 01:17:31;;;;;;;28.70;17.10;;;;;;;;;;4994082;28;20421;-44
2023/02/18 01:19:58;;;;;;;27.43;17.40;;;;;;;;;;4993631;28;20442;-44
2023/02/18 01:22:24;;;;;;;28.13;17.43;;;;;;;;;;4988060;28;20408;-44
2023/02/18 01:24:50;;;;;;;31.07;18.37;;;;;;;;;;4994028;28;20439;-43
2023/02/18 01:27:16;;;;;;;28.10;17.00;;;;;;;;;;4994506;28;20416;-44
2023/02/18 01:29:42;;;;;;;30.10;18.23;;;;;;;;;;4993498;28;20431;-44
2023/02/18 01:32:08;;;;;;;29.03;16.57;;;;;;;;;;4994313;28;20471;-44
2023/02/18 01:34:34;;;;;;;33.03;18.70;;;;;;;;;;4994075;28;20434;-44
2023/02/18 01:37:00;;;;;;;33.33;20.70;;;;;;;;;;4994075;28;20463;-44
2023/02/18 01:39:26;;;;;;;32.90;16.87;;;;;;;;;;4994165;28;20432;-44
2023/02/18 01:41:52;;;;;;;30.57;17.07;;;;;;;;;;4993526;28;20496;-44
2023/02/18 01:44:18;;;;;;;37.23;19.30;;;;;;;;;;4993948;28;20479;-44
2023/02/18 01:46:44;;;;;;;51.87;19.33;;;;;;;;;;4993652;28;20495;-44
2023/02/18 01:49:11;;;;;;;32.17;17.67;;;;;;;;;;4993877;28;20428;-44
2023/02/18 01:51:41;;;;;;;29.50;17.77;;;;;;;;;;4993418;28;20962;-44
2023/02/18 01:54:16;;;;;;;29.70;17.60;;;;;;;;;;4993879;28;20416;-44
2023/02/18 01:56:46;;;;;;;28.27;17.73;;;;;;;;;;4993319;28;20445;-44
2023/02/18 01:59:13;;;;;;;26.93;17.00;;;;;;;;;;4993892;28;20421;-44
2023/02/18 02:01:42;;;;;;;28.87;16.87;;;;;;;;;;4987844;28;20408;-44
2023/02/18 02:04:08;;;;;;;28.67;17.47;;;;;;;;;;4993058;28;20412;-44
2023/02/18 02:06:34;;;;;;;27.60;17.67;;;;;;;;;;4993399;28;20499;-44
2023/02/18 02:09:02;;;;;;;26.70;16.57;;;;;;;;;;4993165;28;20443;-44
2023/02/18 02:11:28;;;;;;;31.60;16.50;;;;;;;;;;4992776;28;20419;-44
2023/02/18 02:14:06;;;;;;;28.10;15.50;;;;;;;;;;4993516;28;20468;-45
2023/02/18 02:16:50;;;;;;;28.57;16.53;;;;;;;;;;4992896;28;20470;-44
2023/02/18 02:19:35;;;;;;;26.83;15.13;;;;;;;;;;4985726;28;20457;-44
2023/02/18 02:22:19;;;;;;;22.13;14.30;;;;;;;;;;4992877;28;20434;-44
2023/02/18 02:24:56;;;;;;;26.10;15.03;;;;;;;;;;4993117;28;20995;-45
2023/02/18 02:27:28;;;;;;;24.40;15.40;;;;;;;;;;4986264;28;20462;-44
2023/02/18 02:30:13;;;;;;;22.73;12.80;;;;;;;;;;4992488;28;20479;-44
2023/02/18 02:32:50;;;;;;;24.57;12.93;;;;;;;;;;4987297;28;20542;-44
2023/02/18 02:35:16;;;;;;;20.63;13.50;;;;;;;;;;4985621;28;20404;-44
2023/02/18 02:38:01;;;;;;;19.07;12.70;;;;;;;;;;4992992;28;20419;-45
2023/02/18 02:40:33;;;;;;;20.80;12.47;;;;;;;;;;4989056;28;20478;-44
2023/02/18 02:43:11;;;;;;;25.90;10.77;;;;;;;;;;4992946;28;20771;-44
2023/02/18 02:45:56;;;;;;;15.77;11.70;;;;;;;;;;4992786;28;20904;-44
2023/02/18 02:48:24;;;;;;;18.80;11.40;;;;;;;;;;4986239;28;20415;-44
2023/02/18 02:51:06;;;;;;;15.27;10.40;;;;;;;;;;4992112;28;20467;-44
2023/02/18 02:53:34;;;;;;;14.93;11.20;;;;;;;;;;4992750;28;20466;-44
2023/02/18 02:56:00;;;;;;;16.30;11.37;;;;;;;;;;4995122;28;20408;-44
2023/02/18 02:58:26;;;;;;;20.23;11.13;;;;;;;;;;4992548;28;20774;-45
2023/02/18 03:00:58;;;;;;;12.43;9.87;;;;;;;;;;4991925;28;20507;-44
2023/02/18 03:03:44;;;;;;;14.03;10.30;;;;;;;;;;4992612;28;20415;-44
2023/02/18 03:06:20;;;;;;;18.20;11.10;;;;;;;;;;4991631;28;20420;-44
2023/02/18 03:08:52;;;;;;;15.20;10.27;;;;;;;;;;4991387;28;20411;-44
2023/02/18 03:11:18;;;;;;;14.93;10.30;;;;;;;;;;4987148;28;20784;-44
2023/02/18 03:13:47;;;;;;;11.43;8.90;;;;;;;;;;4990601;28;20507;-44
2023/02/18 03:16:27;;;;;;;13.63;9.53;;;;;;;;;;4991295;28;20482;-45
2023/02/18 03:18:59;;;;;;;13.33;8.77;;;;;;;;;;4991405;28;20567;-45
2023/02/18 03:21:27;;;;;;;12.10;8.90;;;;;;;;;;4987942;28;20499;-44
2023/02/18 03:23:58;;;;;;;14.90;9.30;;;;;;;;;;4991521;28;20907;-44
2023/02/18 03:26:25;;;;;;;15.03;9.73;;;;;;;;;;4991370;28;21517;-44
2023/02/18 03:28:55;;;;;;;18.23;11.13;;;;;;;;;;4991759;28;20899;-44
2023/02/18 03:31:22;;;;;;;14.77;9.93;;;;;;;;;;4984842;28;20424;-44
2023/02/18 03:33:51;;;;;;;17.17;10.70;;;;;;;;;;4992509;28;20471;-45
2023/02/18 03:36:18;;;;;;;19.33;10.93;;;;;;;;;;4991994;28;20497;-45
2023/02/18 03:38:56;;;;;;;18.13;10.70;;;;;;;;;;4991761;28;20404;-44
2023/02/18 03:41:22;;;;;;;18.13;10.43;;;;;;;;;;4984858;28;20418;-45
2023/02/18 03:43:50;;;;;;;19.63;11.97;;;;;;;;;;4992180;28;20498;-45
2023/02/18 03:46:16;;;;;;;16.77;11.20;;;;;;;;;;4991865;28;20419;-45
2023/02/18 03:48:42;;;;;;;17.30;11.40;;;;;;;;;;4991000;28;20416;-44
2023/02/18 03:51:08;;;;;;;19.47;10.43;;;;;;;;;;4990722;28;20800;-44
2023/02/18 03:53:34;;;;;;;14.73;10.20;;;;;;;;;;4991831;28;20463;-45
2023/02/18 03:56:00;;;;;;;16.77;10.40;;;;;;;;;;4994663;28;20451;-45
2023/02/18 03:58:26;;;;;;;16.40;9.70;;;;;;;;;;4991862;28;20415;-45
2023/02/18 04:00:52;;;;;;;25.33;12.00;;;;;;;;;;4988278;28;20461;-45
2023/02/18 04:03:18;;;;;;;20.50;11.03;;;;;;;;;;4998203;28;20855;-45
2023/02/18 04:05:44;;;;;;;17.60;9.50;;;;;;;;;;4991695;28;20777;-45
2023/02/18 04:08:10;;;;;;;21.43;12.00;;;;;;;;;;4991495;28;20789;-44
2023/02/18 04:10:36;;;;;;;19.67;10.30;;;;;;;;;;4991152;28;20497;-45
2023/02/18 04:13:02;;;;;;;23.30;10.87;;;;;;;;;;4991912;28;20462;-45
2023/02/18 04:15:28;;;;;;;22.30;11.20;;;;;;;;;;4991761;28;20772;-45
2023/02/18 04:17:54;;;;;;;22.20;11.80;;;;;;;;;;4991550;28;20404;-45
2023/02/18 04:20:21;;;;;;;20.83;10.73;;;;;;;;;;4991071;28;20570;-45
2023/02/18 04:22:47;;;;;;;24.37;12.00;;;;;;;;;;4991630;28;20416;-44
2023/02/18 04:25:13;;;;;;;21.70;11.90;;;;;;;;;;4991705;28;20416;-45
2023/02/18 04:27:39;;;;;;;20.53;10.67;;;;;;;;;;4991827;28;20443;-44
2023/02/18 04:30:05;;;;;;;20.60;10.93;;;;;;;;;;4990809;28;20436;-45
2023/02/18 04:32:31;;;;;;;24.13;11.90;;;;;;;;;;4991678;28;20860;-45
2023/02/18 04:34:57;;;;;;;24.03;10.70;;;;;;;;;;4991391;28;20464;-45
2023/02/18 04:37:23;;;;;;;19.40;10.63;;;;;;;;;;4991623;28;20463;-44
2023/02/18 04:39:49;;;;;;;17.83;9.27;;;;;;;;;;4994273;28;20507;-45
2023/02/18 04:42:15;;;;;;;16.27;9.80;;;;;;;;;;4995219;28;20507;-44
2023/02/18 04:44:41;;;;;;;14.20;8.87;;;;;;;;;;4995021;28;20955;-45
2023/02/18 04:47:08;;;;;;;16.03;8.90;;;;;;;;;;4995254;28;20423;-45
2023/02/18 04:49:34;;;;;;;17.57;7.57;;;;;;;;;;4994838;28;20495;-45
2023/02/18 04:52:00;;;;;;;13.10;8.07;;;;;;;;;;4994285;28;20428;-44
2023/02/18 04:54:26;;;;;;;14.17;6.90;;;;;;;;;;4994992;28;20416;-45
2023/02/18 04:56:52;;;;;;;9.90;6.60;;;;;;;;;;4994946;28;20444;-44
2023/02/18 04:59:17;;;;;;;11.00;6.50;;;;;;;;;;4994625;28;20982;-45
2023/02/18 05:01:43;;;;;;;8.47;5.43;;;;;;;;;;4994423;28;20771;-44
2023/02/18 05:04:09;;;;;;;7.37;4.50;;;;;;;;;;4994817;28;20420;-45
2023/02/18 05:06:38;;;;;;;6.73;4.60;;;;;;;;;;4994571;28;20408;-45
2023/02/18 05:09:04;;;;;;;6.60;4.13;;;;;;;;;;4993500;28;20975;-44
2023/02/18 05:11:30;;;;;;;5.80;3.63;;;;;;;;;;4994210;28;20520;-44
2023/02/18 05:13:56;;;;;;;7.00;4.63;;;;;;;;;;4994634;28;20471;-45
2023/02/18 05:16:22;;;;;;;4.47;3.50;;;;;;;;;;4994548;28;20491;-45
2023/02/18 05:18:48;;;;;;;3.87;3.50;;;;;;;;;;4994130;28;20774;-45
2023/02/18 05:21:14;;;;;;;3.47;3.10;;;;;;;;;;4993868;28;20777;-45
2023/02/18 05:23:40;;;;;;;3.70;2.50;;;;;;;;;;4994507;28;20420;-45
2023/02/18 05:26:06;;;;;;;3.30;2.90;;;;;;;;;;4994221;28;20412;-45
2023/02/18 05:28:33;;;;;;;3.50;2.73;;;;;;;;;;4994981;28;20421;-44
2023/02/18 05:30:59;;;;;;;3.50;3.13;;;;;;;;;;4993491;28;20437;-42
2023/02/18 05:33:25;;;;;;;2.47;2.27;;;;;;;;;;4994211;28;20463;-43
2023/02/18 05:35:50;;;;;;;3.60;3.30;;;;;;;;;;4994033;28;20777;-43
2023/02/18 05:38:17;;;;;;;2.60;2.20;;;;;;;;;;4994224;28;20408;-47
2023/02/18 05:40:43;;;;;;;3.50;2.50;;;;;;;;;;4995471;28;20486;-46
2023/02/18 05:43:08;;;;;;;2.97;2.50;;;;;;;;;;4994215;28;20810;-42
2023/02/18 05:45:35;;;;;;;3.50;2.53;;;;;;;;;;4994045;28;20440;-43
2023/02/18 05:48:01;;;;;;;3.20;2.80;;;;;;;;;;4993731;28;20419;-42
2023/02/18 05:50:27;;;;;;;2.90;2.47;;;;;;;;;;4992468;28;20453;-43
2023/02/18 05:52:52;;;;;;;3.10;2.80;;;;;;;;;;4994080;28;20470;-43
2023/02/18 05:55:19;;;;;;;2.67;2.30;;;;;;;;;;4993912;28;20471;-43
2023/02/18 05:57:45;;;;;;;3.93;2.50;;;;;;;;;;4993948;28;20774;-43
2023/02/18 06:00:11;;;;;;;2.50;2.30;;;;;;;;;;4992895;28;20417;-43
2023/02/18 06:02:37;;;;;;;3.47;2.70;;;;;;;;;;4993747;28;20440;-44
2023/02/18 06:05:04;;;;;;;2.60;2.20;;;;;;;;;;4993433;28;20510;-42
2023/02/18 06:07:30;;;;;;;2.53;2.33;;;;;;;;;;4993622;28;20418;-42
2023/02/18 06:09:56;;;;;;;2.60;2.40;;;;;;;;;;4993137;28;20788;-50
2023/02/18 06:12:23;;;;;;;2.33;2.13;;;;;;;;;;4993340;28;20463;-43
2023/02/18 06:14:49;;;;;;;2.13;2.03;;;;;;;;;;4993400;28;20786;-44
2023/02/18 06:17:17;;;;;;;2.00;1.90;;;;;;;;;;4992188;28;20423;-43
2023/02/18 06:19:43;;;;;;;5.50;2.63;;;;;;;;;;4993199;28;20424;-43
2023/02/18 06:22:09;;;;;;;2.50;2.30;;;;;;;;;;4992654;28;20466;-42
2023/02/18 06:24:35;;;;;;;2.60;2.40;;;;;;;;;;4993186;28;20494;-42
2023/02/18 06:27:01;;;;;;;4.17;2.70;;;;;;;;;;4993374;28;20416;-43
2023/02/18 06:29:30;;;;;;;3.30;3.00;;;;;;;;;;4993219;28;20432;-43
2023/02/18 06:31:55;;;;;;;3.60;3.10;;;;;;;;;;4992061;28;20432;-43
2023/02/18 06:34:21;;;;;;;3.37;3.03;;;;;;;;;;4993274;28;20826;-42
2023/02/18 06:36:47;;;;;;;4.07;3.67;;;;;;;;;;4993178;28;20786;-43
2023/02/18 06:39:13;;;;;;;4.50;3.60;;;;;;;;;;4993241;28;20428;-43
2023/02/18 06:41:39;;;;;;;3.93;3.53;;;;;;;;;;4988361;28;20435;-43
2023/02/18 06:44:06;;;;;;;5.73;3.90;;;;;;;;;;4998553;28;20422;-43
2023/02/18 06:46:32;;;;;;;4.37;3.47;;;;;;;;;;4992554;28;20400;-44
2023/02/18 06:48:58;;;;;;;5.33;3.43;;;;;;;;;;4998254;28;20454;-46
2023/02/18 06:51:24;;;;;;;3.80;3.50;;;;;;;;;;4992106;28;20443;-42
2023/02/18 06:53:50;;;;;;;4.07;3.67;;;;;;;;;;4992733;28;21004;-46
2023/02/18 06:56:16;;;;;;;3.83;2.93;;;;;;;;;;4992546;28;20822;-42
2023/02/18 06:58:42;;;;;;;4.27;3.60;;;;;;;;;;4992817;28;20445;-42
2023/02/18 07:01:08;;;;;;;4.37;3.00;;;;;;;;;;4990504;28;20810;-42
2023/02/18 07:03:34;;;;;;;5.90;4.50;;;;;;;;;;4992162;28;20409;-42
2023/02/18 07:06:00;;;;;;;4.57;3.50;;;;;;;;;;4992084;28;20420;-43
2023/02/18 07:08:25;;;;;;;5.27;4.10;;;;;;;;;;4992302;28;20522;-42
2023/02/18 07:10:52;;;;;;;9.53;5.03;;;;;;;;;;4995628;28;20453;-43
2023/02/18 07:13:18;;;;;;;5.37;4.20;;;;;;;;;;4992146;28;20463;-43
2023/02/18 07:15:44;;;;;;;5.13;4.10;;;;;;;;;;4990397;28;20500;-43
2023/02/18 07:18:10;;;;;;;5.87;4.20;;;;;;;;;;4992280;28;20405;-45
2023/02/18 07:20:36;;;;;;;6.17;4.40;;;;;;;;;;4991686;28;20432;-47
2023/02/18 07:23:02;;;;;;;6.70;4.60;;;;;;;;;;4992493;28;20420;-46
2023/02/18 07:25:28;;;;;;;6.90;5.20;;;;;;;;;;4992513;28;20416;-42
2023/02/18 07:27:54;;;;;;;5.87;5.00;;;;;;;;;;4992092;28;20780;-42
2023/02/18 07:30:20;;;;;;;6.77;5.00;;;;;;;;;;4991073;28;20463;-43
2023/02/18 07:32:46;;;;;;;5.50;4.43;;;;;;;;;;4992281;28;20463;-43
2023/02/18 07:35:16;;;;;;;6.87;4.27;;;;;;;;;;4992281;28;20490;-42
2023/02/18 07:37:46;;;;;;;4.60;4.20;;;;;;;;;;4991126;28;20482;-43
2023/02/18 07:40:15;;;;;;;4.20;3.80;;;;;;;;;;4991537;28;20526;-43
2023/02/18 07:42:41;;;;;;;4.90;4.10;;;;;;;;;;4991715;28;20559;-47
2023/02/18 07:45:09;;;;;;;4.90;3.83;;;;;;;;;;4990799;28;20511;-43
2023/02/18 07:47:35;;;;;;;13.73;6.93;;;;;;;;;;4992115;28;20416;-42
2023/02/18 07:50:01;;;;;;;4.90;4.07;;;;;;;;;;4991569;28;20451;-45
2023/02/18 07:52:28;;;;;;;4.40;3.13;;;;;;;;;;4991322;28;21074;-43
2023/02/18 07:54:54;;;;;;;4.43;3.73;;;;;;;;;;4991350;28;20431;-44
2023/02/18 07:57:20;;;;;;;3.90;3.50;;;;;;;;;;4983130;28;20777;-46
2023/02/18 07:59:46;;;;;;;4.80;3.00;;;;;;;;;;4990336;28;20429;-42
2023/02/18 08:02:20;;;;;;;3.63;2.90;;;;;;;;;;4990654;28;20440;-42
2023/02/18 08:04:48;;;;;;;3.30;3.00;;;;;;;;;;4990837;28;20408;-42
2023/02/18 08:07:14;;;;;;;3.33;3.03;;;;;;;;;;4984166;28;20432;-43
2023/02/18 08:09:41;;;;;;;3.73;2.93;;;;;;;;;;4991608;28;20428;-42
2023/02/18 08:12:07;;;;;;;3.13;2.60;;;;;;;;;;4991168;28;20408;-43
2023/02/18 08:14:32;;;;;;;2.60;2.40;;;;;;;;;;4995236;28;20431;-42
2023/02/18 08:16:58;;;;;;;2.33;2.13;;;;;;;;;;4995851;28;20400;-42
2023/02/18 08:19:24;;;;;;;2.30;2.10;;;;;;;;;;4995620;28;20430;-42
2023/02/18 08:21:50;;;;;;;2.83;2.13;;;;;;;;;;4994898;28;20411;-45
2023/02/18 08:24:16;;;;;;;2.83;1.90;;;;;;;;;;4995389;28;20411;-45
2023/02/18 08:26:42;;;;;;;2.90;1.90;;;;;;;;;;4995700;28;20420;-42
2023/02/18 08:29:08;;;;;;;2.40;1.77;;;;;;;;;;4995455;28;20653;-43
2023/02/18 08:31:34;;;;;;;1.90;1.80;;;;;;;;;;4994769;28;20529;-42
2023/02/18 08:34:00;;;;;;;3.53;1.60;;;;;;;;;;4993954;28;20463;-42
2023/02/18 08:36:27;;;;;;;2.03;1.57;;;;;;;;;;4995464;28;20751;-42
2023/02/18 08:38:54;;;;;;;1.60;1.50;;;;;;;;;;4995071;28;20423;-45
2023/02/18 08:41:19;;;;;;;2.30;2.07;;;;;;;;;;4994778;28;21046;-43
2023/02/18 08:43:46;;;;;;;3.20;1.70;;;;;;;;;;4995048;28;20515;-46
2023/02/18 08:46:12;;;;;;;2.37;1.83;;;;;;;;;;4993158;28;20907;-46
2023/02/18 08:48:38;;;;;;;2.00;1.90;;;;;;;;;;4993916;28;20486;-44
2023/02/18 08:51:11;;;;;;;8.13;5.37;;;;;;;;;;4993770;28;21003;-47
2023/02/18 08:53:37;;;;;;;2.00;1.90;;;;;;;;;;5007636;28;20451;-43
2023/02/18 08:56:05;;;;;;;4.80;2.10;;;;;;;;;;4995076;28;20741;-42
2023/02/18 08:58:31;;;;;;;2.10;1.90;;;;;;;;;;4994312;28;20427;-42
2023/02/18 09:01:01;;;;;;;9.53;2.67;;;;;;;;;;4994718;28;20440;-43
2023/02/18 09:03:27;;;;;;;2.37;2.20;;;;;;;;;;4993749;28;20415;-46
2023/02/18 09:05:53;;;;;;;3.90;2.90;;;;;;;;;;4998383;28;20415;-42
2023/02/18 09:08:19;;;;;;;2.60;2.40;;;;;;;;;;4993713;28;20904;-42
2023/02/18 09:10:48;;;;;;;4.27;3.03;;;;;;;;;;4993357;28;20439;-42
2023/02/18 09:13:14;;;;;;;7.73;3.00;;;;;;;;;;4986072;28;20464;-43
2023/02/18 09:15:42;;;;;;;8.53;3.47;;;;;;;;;;4987320;28;20841;-43
2023/02/18 09:18:08;;;;;;;5.23;2.50;;;;;;;;;;4994017;28;20458;-42
2023/02/18 09:20:34;;;;;;;5.00;3.10;;;;;;;;;;4984376;28;20943;-42
2023/02/18 09:23:02;;;;;;;4.40;2.37;;;;;;;;;;4988054;28;20421;-42
2023/02/18 09:25:28;;;;;;;5.50;2.60;;;;;;;;;;4992760;28;20433;-42
2023/02/18 09:27:54;;;;;;;3.43;2.80;;;;;;;;;;4992398;28;20499;-42
2023/02/18 09:30:20;;;;;;;4.23;2.57;;;;;;;;;;4999381;28;20439;-44
2023/02/18 09:32:46;;;;;;;6.50;2.40;;;;;;;;;;4994365;28;20910;-42
2023/02/18 09:35:12;;;;;;;4.47;2.80;;;;;;;;;;4994443;28;20487;-42
2023/02/18 09:37:38;;;;;;;4.80;2.60;;;;;;;;;;4994422;28;20800;-42
2023/02/18 09:40:05;;;;;;;5.43;3.00;;;;;;;;;;4993754;28;20432;-43
2023/02/18 09:42:32;;;;;;;5.90;2.50;;;;;;;;;;4992839;28;20495;-43
2023/02/18 09:45:00;;;;;;;4.10;3.23;;;;;;;;;;4993907;28;20427;-45
2023/02/18 09:47:35;;;;;;;10.30;3.10;;;;;;;;;;4994157;28;20415;-43
2023/02/18 09:50:10;;;;;;;4.63;3.70;;;;;;;;;;4993640;28;20518;-43
2023/02/18 09:52:37;;;;;;;8.80;3.37;;;;;;;;;;4986493;28;20482;-42
2023/02/18 09:55:23;;;;;;;9.97;5.40;;;;;;;;;;4992769;28;20410;-45
2023/02/18 09:57:51;;;;;;;10.07;5.57;;;;;;;;;;4990696;28;20432;-42
2023/02/18 10:00:37;;;;;;;7.40;2.83;;;;;;;;;;4991826;28;20868;-42
2023/02/18 10:03:14;;;;;;;4.33;2.83;;;;;;;;;;4993594;28;20569;-46
2023/02/18 10:06:06;;;;;;;6.43;3.77;;;;;;;;;;4993507;28;20448;-43
2023/02/18 10:08:37;;;;;;;11.57;3.67;;;;;;;;;;4990685;28;20428;-42
2023/02/18 10:11:04;;;;;;;8.50;3.97;;;;;;;;;;4993002;28;20522;-42
2023/02/18 10:13:31;;;;;;;9.70;3.73;;;;;;;;;;4993638;28;20472;-46
2023/02/18 10:15:57;;;;;;;10.40;3.93;;;;;;;;;;4992998;28;20507;-42
2023/02/18 10:18:25;;;;;;;9.83;4.17;;;;;;;;;;4993412;28;20438;-42
2023/02/18 10:20:52;;;;;;;4.13;3.30;;;;;;;;;;4992690;28;20420;-42
2023/02/18 10:23:19;;;;;;;7.80;3.60;;;;;;;;;;4993491;28;20764;-42
2023/02/18 10:25:46;;;;;;;16.40;3.87;;;;;;;;;;4991867;28;20437;-42
2023/02/18 10:28:12;;;;;;;10.97;4.13;;;;;;;;;;4993848;28;20427;-46
2023/02/18 10:30:47;;;;;;;10.20;3.50;;;;;;;;;;4992288;28;20490;-46
2023/02/18 10:33:22;;;;;;;18.73;4.53;;;;;;;;;;4993651;28;20674;-47
2023/02/18 10:36:03;;;;;;;5.97;3.53;;;;;;;;;;4996551;28;20898;-47
2023/02/18 10:38:38;;;;;;;11.87;3.80;;;;;;;;;;4995181;28;20439;-47
2023/02/18 10:41:21;;;;;;;10.30;4.30;;;;;;;;;;4972690;28;20979;-47
2023/02/18 10:43:50;;;;;;;15.23;4.83;;;;;;;;;;4974928;28;20421;-45
2023/02/18 10:46:19;;;;;;;9.00;3.67;;;;;;;;;;4973126;28;20467;-45
2023/02/18 10:48:54;;;;;;;5.40;3.47;;;;;;;;;;4974663;28;20416;-47
2023/02/18 10:51:21;;;;;;;5.40;4.20;;;;;;;;;;4973903;28;20924;-46
2023/02/18 10:53:49;;;;;;;12.13;4.43;;;;;;;;;;4974462;28;20499;-47
2023/02/18 10:56:38;;;;;;;9.70;3.70;;;;;;;;;;5002759;28;20878;-47
2023/02/18 10:59:11;;;;;;;9.20;4.17;;;;;;;;;;4990870;28;20542;-45
2023/02/18 11:01:37;;;;;;;10.03;4.07;;;;;;;;;;4993208;28;20776;-47
2023/02/18 11:04:11;;;;;;;12.67;4.27;;;;;;;;;;4993632;28;20956;-47
2023/02/18 11:06:43;;;;;;;7.83;4.03;;;;;;;;;;4993577;28;20423;-46
2023/02/18 11:09:22;;;;;;;8.70;4.70;;;;;;;;;;4993139;28;20436;-48
2023/02/18 11:11:49;;;;;;;18.63;4.50;;;;;;;;;;4992823;28;20424;-44
2023/02/18 11:14:17;;;;;;;6.10;3.50;;;;;;;;;;4993857;28;20481;-47
2023/02/18 11:16:45;;;;;;;8.50;4.63;;;;;;;;;;4994421;28;20425;-47
2023/02/18 11:19:29;;;;;;;16.20;5.23;;;;;;;;;;4993537;28;20416;-47
2023/02/18 11:22:06;;;;;;;6.07;4.20;;;;;;;;;;4992355;28;20471;-45
2023/02/18 11:24:32;;;;;;;18.97;4.60;;;;;;;;;;4993498;28;20876;-46
2023/02/18 11:26:58;;;;;;;5.20;4.30;;;;;;;;;;4994333;28;20878;-46
2023/02/18 11:29:25;;;;;;;8.37;4.93;;;;;;;;;;4993479;28;20967;-47
2023/02/18 11:31:52;;;;;;;10.87;4.23;;;;;;;;;;4992856;28;20486;-47
2023/02/18 11:34:30;;;;;;;5.50;4.00;;;;;;;;;;4993040;28;20471;-46
2023/02/18 11:37:07;;;;;;;6.50;3.70;;;;;;;;;;4991738;28;20827;-45
2023/02/18 11:39:33;;;;;;;13.03;4.20;;;;;;;;;;4993248;28;20431;-46
2023/02/18 11:42:02;;;;;;;9.70;3.70;;;;;;;;;;4992747;28;20490;-45
2023/02/18 11:44:30;;;;;;;5.03;3.80;;;;;;;;;;4993222;28;20796;-46
2023/02/18 11:47:04;;;;;;;5.93;4.10;;;;;;;;;;4993295;28;20416;-47
2023/02/18 11:49:32;;;;;;;6.20;3.60;;;;;;;;;;4991332;28;20447;-47
2023/02/18 11:52:17;;;;;;;3.57;2.53;;;;;;;;;;4991699;28;20915;-45
2023/02/18 11:54:57;;;;;;;3.67;2.87;;;;;;;;;;4994063;28;20420;-46
2023/02/18 11:57:25;;;;;;;4.20;3.80;;;;;;;;;;4999504;28;20501;-47
2023/02/18 11:59:51;;;;;;;7.13;3.63;;;;;;;;;;4993052;28;20514;-47
2023/02/18 12:02:44;;;;;;;6.20;3.80;;;;;;;;;;4992525;28;20449;-47
2023/02/18 12:05:27;;;;;;;7.13;3.40;;;;;;;;;;4994235;28;20431;-46
2023/02/18 12:07:53;;;;;;;5.67;3.40;;;;;;;;;;4992790;28;20457;-45
2023/02/18 12:10:19;;;;;;;5.10;3.00;;;;;;;;;;4992661;28;20486;-45
2023/02/18 12:12:47;;;;;;;10.90;3.37;;;;;;;;;;4992113;28;20455;-47
2023/02/18 12:15:16;;;;;;;3.30;3.00;;;;;;;;;;4993055;28;20407;-46
2023/02/18 12:17:55;;;;;;;3.60;3.30;;;;;;;;;;4992990;28;20792;-46
2023/02/18 12:20:24;;;;;;;3.43;3.23;;;;;;;;;;4992590;28;20439;-46
2023/02/18 12:22:56;;;;;;;7.67;3.30;;;;;;;;;;4992181;28;20424;-45
2023/02/18 12:25:22;;;;;;;3.10;2.90;;;;;;;;;;4992752;28;20423;-46
2023/02/18 12:27:49;;;;;;;3.30;2.83;;;;;;;;;;4992432;28;20971;-44
2023/02/18 12:30:25;;;;;;;4.47;3.37;;;;;;;;;;4991796;28;20497;-45
2023/02/18 12:32:57;;;;;;;3.67;3.20;;;;;;;;;;4994307;28;20516;-45
2023/02/18 12:35:29;;;;;;;2.87;2.63;;;;;;;;;;5006461;28;20416;-45
2023/02/18 12:38:03;;;;;;;5.17;3.50;;;;;;;;;;4972243;28;20874;-47
2023/02/18 12:40:29;;;;;;;3.70;2.83;;;;;;;;;;4973310;28;20523;-47
2023/02/18 12:43:09;;;;;;;2.87;2.50;;;;;;;;;;4972676;28;20457;-46
2023/02/18 12:45:41;;;;;;;2.80;2.60;;;;;;;;;;4973838;28;20920;-46
2023/02/18 12:48:33;;;;;;;5.30;3.47;;;;;;;;;;4973115;28;20518;-47
2023/02/18 12:51:02;;;;;;;3.43;3.13;;;;;;;;;;4971307;28;21015;-46
2023/02/18 12:53:40;;;;;;;3.17;2.90;;;;;;;;;;4973162;28;20565;-45
2023/02/18 12:56:20;;;;;;;4.60;3.97;;;;;;;;;;4986444;28;20416;-47
2023/02/18 12:58:46;;;;;;;5.57;3.30;;;;;;;;;;4992335;28;20443;-45
2023/02/18 13:01:27;;;;;;;8.00;4.07;;;;;;;;;;4994670;28;20506;-46
2023/02/18 13:04:02;;;;;;;6.57;4.43;;;;;;;;;;4995333;28;20503;-45
2023/02/18 13:06:28;;;;;;;6.63;4.83;;;;;;;;;;4995435;28;20419;-46
2023/02/18 13:08:57;;;;;;;6.07;4.50;;;;;;;;;;4994916;28;20411;-46
2023/02/18 13:11:33;;;;;;;6.53;5.13;;;;;;;;;;4994465;28;20417;-46
2023/02/18 13:14:13;;;;;;;5.80;4.70;;;;;;;;;;4995139;28;20553;-47
2023/02/18 13:16:41;;;;;;;7.70;4.47;;;;;;;;;;4995423;28;20505;-47
2023/02/18 13:19:19;;;;;;;5.33;3.97;;;;;;;;;;4995270;28;20478;-44
2023/02/18 13:21:46;;;;;;;6.77;5.37;;;;;;;;;;4994505;28;20812;-47
2023/02/18 13:24:15;;;;;;;9.50;4.47;;;;;;;;;;4994320;28;20431;-46
2023/02/18 13:26:43;;;;;;;8.27;4.30;;;;;;;;;;4995166;28;20423;-46
2023/02/18 13:29:28;;;;;;;4.80;3.87;;;;;;;;;;4994668;28;20800;-45
2023/02/18 13:32:06;;;;;;;4.83;4.43;;;;;;;;;;4994160;28;20931;-47
2023/02/18 13:35:11;;;;;;;4.80;4.30;;;;;;;;;;4994982;28;20467;-47
2023/02/18 13:37:46;;;;;;;4.63;4.20;;;;;;;;;;4973193;28;20432;-47
2023/02/18 13:40:20;;;;;;;4.77;4.37;;;;;;;;;;4973226;28;20443;-46
2023/02/18 13:42:50;;;;;;;5.53;4.60;;;;;;;;;;4985150;28;20455;-46
2023/02/18 13:45:23;;;;;;;5.80;4.97;;;;;;;;;;4994868;28;20439;-47
2023/02/18 13:47:50;;;;;;;4.90;4.40;;;;;;;;;;4994742;28;20414;-47
2023/02/18 13:50:25;;;;;;;9.10;4.67;;;;;;;;;;4994836;28;20442;-45
2023/02/18 13:52:52;;;;;;;5.63;4.77;;;;;;;;;;4993121;28;20590;-45
2023/02/18 13:55:22;;;;;;;4.97;4.43;;;;;;;;;;5000748;28;20821;-45
2023/02/18 13:57:49;;;;;;;8.80;5.87;;;;;;;;;;5001440;28;20474;-44
2023/02/18 14:00:20;;;;;;;7.60;5.40;;;;;;;;;;4994015;28;20439;-45
2023/02/18 14:02:57;;;;;;;6.10;4.50;;;;;;;;;;4993544;28;20412;-44
2023/02/18 14:05:23;;;;;;;5.40;4.90;;;;;;;;;;4993908;28;20467;-45
2023/02/18 14:08:06;;;;;;;4.33;3.93;;;;;;;;;;4993758;28;20419;-44
2023/02/18 14:10:34;;;;;;;6.20;5.60;;;;;;;;;;4993296;28;20522;-44
2023/02/18 14:13:02;;;;;;;6.10;5.50;;;;;;;;;;4993353;28;20459;-44
2023/02/18 14:15:28;;;;;;;6.60;5.20;;;;;;;;;;4993534;28;20474;-45
2023/02/18 14:18:12;;;;;;;8.80;6.07;;;;;;;;;;4993625;28;20412;-44
2023/02/18 14:20:38;;;;;;;12.07;6.93;;;;;;;;;;4993542;28;20525;-45
2023/02/18 14:23:19;;;;;;;15.07;8.00;;;;;;;;;;4993112;28;20503;-45
2023/02/18 14:26:04;;;;;;;13.20;8.57;;;;;;;;;;4993602;28;20411;-44
2023/02/18 14:28:34;;;;;;;14.20;8.37;;;;;;;;;;4993139;28;20443;-45
2023/02/18 14:31:01;;;;;;;13.60;8.23;;;;;;;;;;4992696;28;20518;-44
2023/02/18 14:33:29;;;;;;;21.60;9.23;;;;;;;;;;4993446;28;20514;-44
2023/02/18 14:36:00;;;;;;;12.80;8.87;;;;;;;;;;4993160;28;20424;-43
2023/02/18 14:38:29;;;;;;;13.83;8.70;;;;;;;;;;4993860;28;20407;-47
2023/02/18 14:40:55;;;;;;;16.17;10.93;;;;;;;;;;4993453;28;20780;-45
2023/02/18 14:43:27;;;;;;;17.20;9.50;;;;;;;;;;4993783;28;20416;-46
2023/02/18 14:45:53;;;;;;;15.47;9.83;;;;;;;;;;4994152;28;20422;-45